Time;durP1;ratioP1;P1;durP2;ratioP2;P2;SDS_P1;SDS_P2;PMS_P1;PMS_P2;Temp;Humidity;BMP_temperature;BMP_pressure;BME280_temperature;BME280_humidity;BME280_pressure;Samples;Min_cycle;Max_cycle;Signal;HPM_P1;HPM_P2
2022/01/20 00:01:43;;;;;;;46.93;22.10;;;;;;;0.40;91.12;100291.81;5090185;28;20226;-54
2022/01/20 00:04:17;;;;;;;44.90;23.33;;;;;;;0.35;91.62;100288.28;5090328;28;20194;-54
2022/01/20 00:20:29;;;;;;;46.87;22.00;;;;;;;0.48;91.67;100292.00;5090236;28;20740;-55
2022/01/20 00:26:16;;;;;;;45.20;22.90;;;;;;;0.54;91.11;100280.25;5060173;28;20666;-54
2022/01/20 00:28:45;;;;;;;44.63;23.30;;;;;;;0.59;90.35;100278.66;5093820;28;20213;-54
2022/01/20 00:31:32;;;;;;;41.20;23.03;;;;;;;0.49;90.61;100286.94;5094036;28;20269;-55
2022/01/20 00:34:11;;;;;;;43.30;23.13;;;;;;;0.46;90.30;100281.75;5094171;28;20671;-55
2022/01/20 00:39:22;;;;;;;48.23;23.57;;;;;;;0.34;90.77;100276.34;5093682;28;20719;-55
2022/01/20 00:41:49;;;;;;;43.30;23.37;;;;;;;0.27;91.21;100267.66;5093863;28;20568;-55
2022/01/20 00:44:16;;;;;;;47.83;23.27;;;;;;;0.30;92.19;100269.44;5093642;28;20200;-55
2022/01/20 00:46:46;;;;;;;37.50;21.67;;;;;;;0.34;91.42;100269.53;5093714;28;20580;-54
2022/01/20 00:49:13;;;;;;;47.87;23.83;;;;;;;0.33;91.81;100269.53;5093509;28;20195;-54
2022/01/20 00:51:40;;;;;;;49.63;23.00;;;;;;;0.27;91.61;100266.81;5093707;28;20191;-55
2022/01/20 00:54:07;;;;;;;45.50;22.83;;;;;;;0.32;91.38;100262.69;5093533;28;20205;-54
2022/01/20 00:56:34;;;;;;;43.10;22.57;;;;;;;0.43;91.61;100260.41;5093287;28;20368;-54
2022/01/20 00:59:01;;;;;;;44.50;23.27;;;;;;;0.28;91.87;100259.19;5093202;28;20195;-55
2022/01/20 01:01:27;;;;;;;43.53;22.77;;;;;;;0.22;92.01;100253.94;5093329;28;20260;-55
2022/01/20 01:03:56;;;;;;;40.70;22.77;;;;;;;0.22;91.59;100242.88;5093600;28;20582;-55
2022/01/20 01:06:36;;;;;;;41.83;23.07;;;;;;;0.28;91.67;100245.56;5093176;28;20285;-54
2022/01/20 01:09:04;;;;;;;39.37;22.43;;;;;;;0.20;92.44;100252.19;5092962;28;20565;-57
2022/01/20 01:11:31;;;;;;;49.60;23.30;;;;;;;0.13;93.32;100238.38;5093211;28;20305;-57
2022/01/20 01:14:00;;;;;;;44.13;23.33;;;;;;;0.18;93.18;100239.38;5093468;28;20723;-58
2022/01/20 01:16:39;;;;;;;44.77;22.63;;;;;;;0.26;92.35;100232.75;5093144;28;20197;-58
2022/01/20 01:22:04;;;;;;;52.67;23.83;;;;;;;0.38;91.86;100221.97;5092959;28;20237;-58
2022/01/20 01:24:31;;;;;;;46.87;23.17;;;;;;;0.26;96.14;100221.69;5093102;28;20195;-55
2022/01/20 01:26:58;;;;;;;38.07;22.27;;;;;;;0.27;92.58;100223.41;5091695;28;20591;-55
2022/01/20 01:29:43;;;;;;;45.43;23.10;;;;;;;0.10;92.38;100212.81;5092568;28;20286;-55
2022/01/20 01:32:13;;;;;;;44.60;24.07;;;;;;;0.02;94.24;100205.78;5092765;28;20692;-56
2022/01/20 01:34:48;;;;;;;42.10;24.43;;;;;;;0.27;93.19;100215.75;5092732;28;20200;-55
2022/01/20 01:37:35;;;;;;;42.90;22.73;;;;;;;0.23;93.63;100203.72;5092389;28;20206;-57
2022/01/20 01:40:06;;;;;;;46.53;24.33;;;;;;;-0.03;95.11;100200.56;5092536;28;20315;-58
2022/01/20 01:42:39;;;;;;;47.93;24.07;;;;;;;-0.19;96.11;100206.97;5092562;28;20223;-58
2022/01/20 01:45:08;;;;;;;47.93;24.60;;;;;;;-0.37;96.32;100203.97;5092766;28;20732;-58
2022/01/20 01:47:35;;;;;;;43.17;23.67;;;;;;;-0.49;97.60;100193.44;5092125;28;20292;-58
2022/01/20 01:50:04;;;;;;;50.00;24.37;;;;;;;-0.31;97.82;100193.91;5092510;28;20197;-58
2022/01/20 01:52:31;;;;;;;48.67;24.87;;;;;;;-0.44;97.84;100189.31;5092710;28;20214;-58
2022/01/20 01:54:58;;;;;;;46.13;24.37;;;;;;;-0.37;97.54;100193.75;5092310;28;20197;-57
2022/01/20 01:57:27;;;;;;;43.90;23.50;;;;;;;-0.39;98.02;100190.31;5092148;28;20192;-58
2022/01/20 01:59:55;;;;;;;46.37;23.77;;;;;;;-0.38;98.04;100190.34;5092359;28;20196;-57
2022/01/20 02:02:23;;;;;;;45.87;24.63;;;;;;;-0.51;97.73;100164.47;5092246;28;20690;-57
2022/01/20 02:04:51;;;;;;;51.83;24.57;;;;;;;-0.44;97.53;100163.81;5092114;28;20199;-58
2022/01/20 02:07:49;;;;;;;43.67;23.90;;;;;;;-0.41;98.17;100180.06;5091862;28;20636;-57
2022/01/20 02:18:43;;;;;;;45.43;24.47;;;;;;;-0.51;99.67;100173.00;5091811;28;20587;-58
2022/01/20 02:21:12;;;;;;;43.73;21.77;;;;;;;-0.54;98.96;100170.34;5091713;28;20220;-57
2022/01/20 02:23:39;;;;;;;47.80;22.40;;;;;;;-0.53;99.64;100161.88;5091745;28;20287;-58
2022/01/20 02:26:06;;;;;;;34.50;19.73;;;;;;;-0.40;99.23;100165.63;5091914;28;20251;-58
2022/01/20 02:28:34;;;;;;;38.33;20.03;;;;;;;-0.38;98.99;100158.88;5091432;28;20212;-58
2022/01/20 02:31:01;;;;;;;31.20;19.27;;;;;;;-0.51;98.14;100146.63;5091578;28;20210;-58
2022/01/20 02:33:30;;;;;;;33.87;20.33;;;;;;;-0.55;98.19;100157.56;5091671;28;20662;-58
2022/01/20 02:36:01;;;;;;;38.37;20.47;;;;;;;-0.48;97.50;100162.88;5091582;28;20204;-58
2022/01/20 02:38:35;;;;;;;39.30;19.80;;;;;;;-0.53;97.63;100153.38;5090846;28;20195;-58
2022/01/20 02:46:32;;;;;;;39.13;20.97;;;;;;;-0.46;97.04;100145.09;5091201;28;20291;-58
2022/01/20 02:49:00;;;;;;;41.87;23.97;;;;;;;-0.50;96.95;100143.25;5091020;28;20197;-57
2022/01/20 02:51:27;;;;;;;45.83;23.17;;;;;;;-0.58;97.30;100127.78;5091103;28;20679;-58
2022/01/20 02:53:55;;;;;;;37.43;20.50;;;;;;;-0.59;97.89;100140.47;5091551;28;20202;-57
2022/01/20 02:56:22;;;;;;;35.83;19.73;;;;;;;-0.61;97.93;100143.00;5091414;28;20585;-58
2022/01/20 02:58:49;;;;;;;39.43;19.97;;;;;;;-0.64;97.79;100132.69;5090976;28;20199;-57
2022/01/20 03:01:16;;;;;;;40.53;19.93;;;;;;;-0.69;98.15;100128.34;5091005;28;20219;-56
2022/01/20 03:03:43;;;;;;;37.87;20.77;;;;;;;-0.77;98.82;100128.97;5090800;28;20209;-57
2022/01/20 03:06:10;;;;;;;42.27;22.27;;;;;;;-0.69;99.10;100126.66;5090838;28;20205;-57
2022/01/20 03:08:39;;;;;;;43.40;24.80;;;;;;;-0.70;99.46;100139.34;5090630;28;20291;-58
2022/01/20 03:11:08;;;;;;;49.07;24.70;;;;;;;-0.90;99.66;100095.47;5090624;28;20231;-57
2022/01/20 03:13:35;;;;;;;49.17;26.43;;;;;;;-0.80;99.72;100116.16;5090880;28;20198;-58
2022/01/20 03:16:04;;;;;;;50.47;25.00;;;;;;;-0.86;99.24;100127.88;5090877;28;20312;-58
2022/01/20 03:18:31;;;;;;;43.37;23.50;;;;;;;-0.94;99.47;100098.78;5090222;28;20290;-57
2022/01/20 03:20:58;;;;;;;50.13;24.70;;;;;;;-0.86;99.40;100117.69;5090739;28;20587;-57
2022/01/20 03:23:25;;;;;;;48.20;25.00;;;;;;;-0.90;99.96;100109.09;5090719;28;20294;-57
2022/01/20 03:25:52;;;;;;;49.87;24.60;;;;;;;-1.00;100.00;100114.75;5090808;28;20676;-57
2022/01/20 03:28:20;;;;;;;49.10;25.07;;;;;;;-1.16;100.00;100112.63;5090460;28;20195;-58
2022/01/20 03:30:47;;;;;;;47.73;25.17;;;;;;;-1.26;100.00;100080.09;5090440;28;20607;-57
2022/01/20 03:33:14;;;;;;;53.30;26.00;;;;;;;-1.24;100.00;100103.94;5090622;28;20199;-57
2022/01/20 03:35:41;;;;;;;51.63;26.07;;;;;;;-1.32;100.00;100107.91;5090868;28;20195;-57
2022/01/20 03:38:08;;;;;;;53.37;26.53;;;;;;;-1.26;100.00;100105.56;5090573;28;20252;-56
2022/01/20 03:40:35;;;;;;;46.27;25.13;;;;;;;-1.27;100.00;100108.91;5090467;28;20242;-57
2022/01/20 03:43:03;;;;;;;47.40;24.83;;;;;;;-1.24;100.00;100104.75;5090517;28;20202;-57
2022/01/20 03:45:31;;;;;;;51.67;25.10;;;;;;;-1.28;100.00;100102.09;5090463;28;20200;-58
2022/01/20 03:48:07;;;;;;;49.90;25.47;;;;;;;-1.38;100.00;100105.22;5090475;28;20302;-56
2022/01/20 03:53:18;;;;;;;53.80;26.57;;;;;;;-1.41;100.00;100105.97;5090482;28;20690;-57
2022/01/20 03:55:45;;;;;;;49.83;26.23;;;;;;;-1.51;100.00;100086.19;5090355;28;20191;-58
2022/01/20 03:58:13;;;;;;;50.43;27.53;;;;;;;-1.36;100.00;100098.50;5090640;28;20643;-58
2022/01/20 04:00:43;;;;;;;54.73;25.87;;;;;;;-1.29;100.00;100108.00;5090038;28;20244;-58
2022/01/20 04:03:10;;;;;;;50.13;25.73;;;;;;;-1.33;100.00;100107.06;5089907;28;20195;-58
2022/01/20 04:05:44;;;;;;;46.70;24.10;;;;;;;-1.39;100.00;100113.66;5089244;28;20225;-58
2022/01/20 04:08:11;;;;;;;45.80;23.43;;;;;;;-1.60;100.00;100114.78;5088673;28;20290;-56
2022/01/20 04:10:38;;;;;;;47.70;23.93;;;;;;;-1.64;100.00;100107.88;5088586;28;20197;-56
2022/01/20 04:13:05;;;;;;;40.87;23.73;;;;;;;-1.56;100.00;100096.22;5088469;28;20219;-56
2022/01/20 04:15:38;;;;;;;46.10;22.53;;;;;;;-1.67;100.00;100102.69;5088637;28;20191;-57
2022/01/20 04:18:08;;;;;;;43.47;22.77;;;;;;;-1.71;100.00;100100.88;5088340;28;20292;-57
2022/01/20 04:20:35;;;;;;;47.27;23.10;;;;;;;-1.74;100.00;100093.16;5088252;28;20203;-57
2022/01/20 04:23:02;;;;;;;45.10;22.53;;;;;;;-1.61;100.00;100102.00;5088668;28;20203;-57
2022/01/20 04:25:29;;;;;;;62.30;26.83;;;;;;;-1.66;100.00;100099.31;5089055;28;20587;-57
2022/01/20 04:27:56;;;;;;;63.53;29.13;;;;;;;-1.88;100.00;100099.50;5088308;28;20617;-57
2022/01/20 04:30:23;;;;;;;66.67;29.90;;;;;;;-1.86;100.00;100102.97;5085729;28;20279;-59
2022/01/20 04:32:50;;;;;;;69.60;29.93;;;;;;;-1.69;100.00;100106.84;5088587;28;20230;-58
2022/01/20 04:35:20;;;;;;;58.50;26.27;;;;;;;-1.61;100.00;100107.09;5088397;28;20201;-58
2022/01/20 04:37:48;;;;;;;46.17;24.73;;;;;;;-1.68;100.00;100111.13;5088441;28;20200;-57
2022/01/20 04:40:16;;;;;;;54.27;24.40;;;;;;;-1.73;100.00;100106.75;5088077;28;20195;-58
2022/01/20 04:42:45;;;;;;;43.10;21.23;;;;;;;-1.85;100.00;100102.16;5086105;28;20218;-53
2022/01/20 04:45:16;;;;;;;45.57;22.33;;;;;;;-1.91;100.00;100099.41;5088548;28;20195;-57
2022/01/20 04:47:49;;;;;;;42.63;22.27;;;;;;;-1.98;100.00;100097.50;5085933;28;20191;-58
2022/01/20 04:58:36;;;;;;;42.93;21.40;;;;;;;-2.22;100.00;100095.91;4993963;28;20198;-55
2022/01/20 05:01:03;;;;;;;40.00;21.03;;;;;;;-2.22;100.00;100088.28;5068336;28;20249;-54
2022/01/20 05:03:30;;;;;;;42.07;20.40;;;;;;;-2.23;100.00;100091.66;5071814;28;20307;-55
2022/01/20 05:05:59;;;;;;;43.10;21.00;;;;;;;-2.20;100.00;100093.44;5070913;28;20228;-54
2022/01/20 05:08:28;;;;;;;44.63;23.10;;;;;;;-2.26;100.00;100093.25;5074566;28;20324;-53
2022/01/20 05:11:00;;;;;;;124.73;50.37;;;;;;;-2.28;100.00;100087.25;5092001;28;20230;-55
2022/01/20 05:13:33;;;;;;;134.67;56.93;;;;;;;-2.15;100.00;100096.13;5092620;28;20216;-55
2022/01/20 05:16:00;;;;;;;118.50;53.07;;;;;;;-2.23;100.00;100099.28;5092401;28;20259;-55
2022/01/20 05:18:27;;;;;;;117.13;51.30;;;;;;;-2.28;100.00;100089.78;5092195;28;20219;-55
2022/01/20 05:20:54;;;;;;;85.00;38.53;;;;;;;-2.34;100.00;100099.75;5091062;28;20610;-54
2022/01/20 05:23:23;;;;;;;71.13;32.27;;;;;;;-2.49;100.00;100104.38;5091120;28;20237;-54
2022/01/20 05:25:50;;;;;;;64.10;27.80;;;;;;;-2.52;100.00;100110.19;5090858;28;20258;-54
2022/01/20 05:28:17;;;;;;;58.77;26.77;;;;;;;-2.60;100.00;100101.47;5088443;28;20393;-54
2022/01/20 05:30:44;;;;;;;57.17;25.80;;;;;;;-2.66;100.00;100098.72;5091134;28;20584;-55
2022/01/20 05:33:11;;;;;;;48.30;25.20;;;;;;;-2.74;100.00;100078.16;5091049;28;20264;-54
2022/01/20 05:35:38;;;;;;;54.80;26.23;;;;;;;-2.54;100.00;100101.66;5091461;28;20211;-54
2022/01/20 05:38:05;;;;;;;68.50;30.50;;;;;;;-2.64;100.00;100079.31;5090656;28;20221;-55
2022/01/20 05:40:35;;;;;;;59.97;28.40;;;;;;;-2.42;100.00;100086.81;5092479;28;20252;-54
2022/01/20 05:43:04;;;;;;;55.67;28.00;;;;;;;-2.39;100.00;100075.88;5092405;28;20215;-54
2022/01/20 05:45:31;;;;;;;54.10;25.83;;;;;;;-2.29;100.00;100094.00;5092249;28;20200;-54
2022/01/20 05:48:10;;;;;;;55.70;26.83;;;;;;;-2.31;100.00;100097.31;5091459;28;20202;-54
2022/01/20 05:50:36;;;;;;;66.13;26.97;;;;;;;-2.23;100.00;100089.09;5089598;28;20202;-54
2022/01/20 05:53:04;;;;;;;57.07;26.43;;;;;;;-2.14;100.00;100097.84;5092221;28;20218;-54
2022/01/20 05:55:32;;;;;;;59.27;27.47;;;;;;;-2.16;100.00;100094.41;5088868;28;20229;-54
2022/01/20 05:58:01;;;;;;;53.23;27.40;;;;;;;-2.20;100.00;100089.22;5090211;28;20221;-53
2022/01/20 06:00:29;;;;;;;59.77;27.97;;;;;;;-2.15;100.00;100081.75;5090868;28;20226;-54
2022/01/20 06:05:41;;;;;;;56.40;27.67;;;;;;;-1.92;100.00;100083.28;5091898;28;20222;-55
2022/01/20 06:08:08;;;;;;;58.23;28.23;;;;;;;-1.89;100.00;100077.41;5091696;28;20229;-55
2022/01/20 06:10:36;;;;;;;49.97;27.83;;;;;;;-1.91;100.00;100087.53;5091406;28;20219;-55
2022/01/20 06:13:05;;;;;;;51.20;24.70;;;;;;;-1.95;100.00;100077.25;5090475;28;20227;-55
2022/01/20 06:15:33;;;;;;;52.57;23.97;;;;;;;-2.11;100.00;100070.81;5083730;28;20216;-54
2022/01/20 06:18:00;;;;;;;52.43;23.77;;;;;;;-2.07;100.00;100074.34;5091884;28;20238;-54
2022/01/20 06:20:28;;;;;;;47.43;23.93;;;;;;;-1.94;100.00;100068.81;5089878;28;20227;-54
2022/01/20 06:22:55;;;;;;;52.90;25.10;;;;;;;-1.78;100.00;100072.66;5091226;28;20266;-55
2022/01/20 06:25:22;;;;;;;48.83;24.37;;;;;;;-1.89;100.00;100067.25;5091648;28;20236;-54
2022/01/20 06:27:50;;;;;;;53.10;22.70;;;;;;;-1.79;100.00;100071.78;5091416;28;20195;-55
2022/01/20 06:30:18;;;;;;;56.63;23.30;;;;;;;-1.87;100.00;100074.09;5091477;28;20668;-54
2022/01/20 06:32:46;;;;;;;47.80;25.10;;;;;;;-2.03;100.00;100046.47;5091494;28;20294;-53
2022/01/20 06:35:13;;;;;;;46.40;24.60;;;;;;;-1.79;100.00;100070.91;5091338;28;20192;-54
2022/01/20 06:37:40;;;;;;;49.00;25.67;;;;;;;-1.75;100.00;100071.06;5091274;28;20564;-56
2022/01/20 06:40:08;;;;;;;56.47;26.53;;;;;;;-1.66;100.00;100075.53;5090771;28;20246;-55
2022/01/20 06:42:35;;;;;;;53.83;26.90;;;;;;;-1.63;100.00;100079.06;5090696;28;20211;-54
2022/01/20 06:45:03;;;;;;;56.90;27.67;;;;;;;-1.61;100.00;100076.56;5091315;28;20203;-55
2022/01/20 06:47:32;;;;;;;44.37;25.37;;;;;;;-1.55;100.00;100080.13;5090807;28;20191;-55
2022/01/20 06:49:59;;;;;;;53.97;25.13;;;;;;;-1.42;100.00;100077.94;5090892;28;20570;-53
2022/01/20 06:52:27;;;;;;;45.97;23.87;;;;;;;-1.29;100.00;100077.44;5090598;28;20192;-54
2022/01/20 06:54:54;;;;;;;50.50;25.50;;;;;;;-1.29;100.00;100077.44;5090528;28;20191;-54
2022/01/20 06:57:21;;;;;;;57.13;28.63;;;;;;;-1.26;100.00;100068.22;5087066;28;20223;-55
2022/01/20 06:59:48;;;;;;;63.67;31.13;;;;;;;-1.17;100.00;100070.16;5090098;28;20264;-54
2022/01/20 07:02:15;;;;;;;60.30;30.50;;;;;;;-1.23;100.00;100080.16;5089564;28;20241;-54
2022/01/20 07:04:46;;;;;;;62.17;28.90;;;;;;;-0.97;100.00;100084.28;5089439;28;20229;-54
2022/01/20 07:07:14;;;;;;;63.70;31.90;;;;;;;-0.96;100.00;100080.91;5088501;28;20258;-56
2022/01/20 07:09:42;;;;;;;61.93;30.67;;;;;;;-0.99;100.00;100065.53;5089846;28;20215;-55
2022/01/20 07:12:10;;;;;;;65.03;29.53;;;;;;;-0.78;99.80;100081.38;5089816;28;20230;-55
2022/01/20 07:14:38;;;;;;;56.33;28.90;;;;;;;-0.61;99.56;100084.34;5089557;28;20284;-55
2022/01/20 07:17:05;;;;;;;52.40;28.87;;;;;;;-0.53;98.18;100082.84;5090278;28;20253;-55
2022/01/20 07:19:33;;;;;;;56.93;28.50;;;;;;;-0.49;97.55;100079.56;5089774;28;20620;-55
2022/01/20 07:22:02;;;;;;;67.20;31.40;;;;;;;-0.30;97.69;100077.44;5089650;28;20246;-54
2022/01/20 07:24:30;;;;;;;70.57;30.87;;;;;;;-0.36;96.95;100057.78;5089766;28;20203;-54
2022/01/20 07:26:57;;;;;;;62.03;27.33;;;;;;;-0.39;97.21;100055.13;5090839;28;20201;-55
2022/01/20 07:29:25;;;;;;;50.93;27.40;;;;;;;-0.25;95.90;100052.91;5090624;28;20290;-56
2022/01/20 07:31:52;;;;;;;57.20;27.33;;;;;;;-0.22;95.91;100043.63;5090595;28;20641;-55
2022/01/20 07:34:19;;;;;;;58.40;28.93;;;;;;;-0.11;95.45;100034.53;5090755;28;20205;-55
2022/01/20 07:36:47;;;;;;;58.50;27.80;;;;;;;0.10;93.86;100044.34;5090291;28;20202;-55
2022/01/20 07:39:15;;;;;;;47.70;25.80;;;;;;;0.21;92.64;100034.38;5090381;28;20223;-54
2022/01/20 07:41:42;;;;;;;45.60;24.63;;;;;;;0.20;92.48;100037.75;5090111;28;20201;-53
2022/01/20 07:44:09;;;;;;;48.30;25.27;;;;;;;0.37;91.70;100036.41;5090170;28;20198;-53
2022/01/20 07:46:37;;;;;;;54.53;25.43;;;;;;;0.46;91.42;100038.25;5090527;28;20199;-53
2022/01/20 07:49:05;;;;;;;47.83;24.33;;;;;;;0.47;90.90;100053.63;5090374;28;20203;-53
2022/01/20 07:51:32;;;;;;;52.57;26.50;;;;;;;0.46;91.03;100044.22;5089742;28;20288;-52
2022/01/20 07:53:58;;;;;;;54.03;27.00;;;;;;;0.45;90.86;100034.88;5070383;28;20228;-53
2022/01/20 07:56:27;;;;;;;52.60;25.73;;;;;;;0.57;90.62;100035.09;5081932;28;20221;-53
2022/01/20 07:58:54;;;;;;;56.47;27.53;;;;;;;0.55;90.08;100035.91;5090031;28;20400;-54
2022/01/20 08:01:24;;;;;;;61.60;26.97;;;;;;;0.57;89.83;100035.09;5089803;28;20209;-53
2022/01/20 08:03:51;;;;;;;56.50;28.20;;;;;;;0.57;89.07;100042.75;5089876;28;20658;-53
2022/01/20 08:06:19;;;;;;;57.37;28.57;;;;;;;0.60;89.00;100040.28;5089994;28;20208;-53
2022/01/20 08:08:46;;;;;;;55.03;27.87;;;;;;;0.56;89.35;100043.63;5090191;28;20328;-58
2022/01/20 08:11:14;;;;;;;51.17;27.80;;;;;;;0.62;88.35;100030.09;5089683;28;21524;-59
2022/01/20 08:13:42;;;;;;;54.83;27.90;;;;;;;0.78;88.41;100028.69;5089797;28;20191;-58
2022/01/20 08:16:09;;;;;;;63.83;28.03;;;;;;;0.92;87.05;100040.00;5089807;28;20221;-59
2022/01/20 08:18:36;;;;;;;46.40;25.67;;;;;;;1.04;85.59;100045.34;5089640;28;20207;-58
2022/01/20 08:21:03;;;;;;;60.73;29.93;;;;;;;1.15;85.31;100037.84;5089956;28;20594;-59
2022/01/20 08:23:30;;;;;;;65.13;31.73;;;;;;;1.35;86.12;100036.53;5089507;28;20326;-58
2022/01/20 08:25:57;;;;;;;68.00;33.20;;;;;;;1.27;86.54;100030.41;5090057;28;20667;-58
2022/01/20 08:28:24;;;;;;;64.33;33.00;;;;;;;1.28;86.87;100039.78;5089807;28;20281;-58
2022/01/20 08:30:53;;;;;;;68.77;33.37;;;;;;;1.35;86.52;100032.28;5089571;28;20205;-58
2022/01/20 08:33:19;;;;;;;62.30;31.07;;;;;;;1.49;85.61;100037.59;5089496;28;20187;-58
2022/01/20 08:35:47;;;;;;;60.63;29.53;;;;;;;1.44;84.72;100019.63;5090026;28;20195;-58
2022/01/20 08:38:14;;;;;;;70.97;32.07;;;;;;;1.48;84.32;100030.75;5093566;28;20199;-59
2022/01/20 08:40:42;;;;;;;55.77;30.57;;;;;;;1.49;84.47;100034.16;5093436;28;20199;-56
2022/01/20 08:43:10;;;;;;;67.87;29.83;;;;;;;1.58;83.54;100032.59;5093296;28;20222;-56
2022/01/20 08:45:38;;;;;;;67.63;29.47;;;;;;;1.63;83.74;100025.00;5093276;28;20201;-56
2022/01/20 08:48:08;;;;;;;78.73;38.10;;;;;;;1.80;82.34;100023.59;5093867;28;20199;-58
2022/01/20 08:50:36;;;;;;;76.37;39.37;;;;;;;1.85;82.34;100016.81;5093281;28;20278;-56
2022/01/20 08:53:03;;;;;;;70.67;35.73;;;;;;;2.00;81.15;100011.91;5093523;28;20191;-56
2022/01/20 08:55:30;;;;;;;72.43;35.93;;;;;;;2.00;80.82;100022.16;5088119;28;20678;-54
2022/01/20 08:57:58;;;;;;;70.73;34.87;;;;;;;2.06;80.25;100027.34;5081856;28;20205;-53
2022/01/20 09:00:28;;;;;;;66.30;32.00;;;;;;;2.08;80.05;100025.66;5073408;28;20215;-53
2022/01/20 09:02:55;;;;;;;57.27;30.93;;;;;;;2.10;79.89;100034.25;5080787;28;20215;-53
2022/01/20 09:05:24;;;;;;;58.70;29.50;;;;;;;2.14;78.35;100030.84;5092893;28;20196;-54
2022/01/20 09:07:51;;;;;;;53.23;28.37;;;;;;;2.22;77.89;100033.53;5092034;28;20207;-53
2022/01/20 09:10:20;;;;;;;56.70;29.83;;;;;;;2.23;78.08;100034.41;5092894;28;20211;-53
2022/01/20 09:15:32;;;;;;;60.90;30.17;;;;;;;2.29;78.49;100039.59;5092917;28;20248;-56
2022/01/20 09:18:03;;;;;;;54.00;27.90;;;;;;;2.29;78.34;100027.63;5093062;28;20196;-57
2022/01/20 09:20:33;;;;;;;58.83;29.27;;;;;;;2.33;76.98;100008.06;5092922;28;20192;-53
2022/01/20 09:23:00;;;;;;;65.77;29.20;;;;;;;2.51;76.50;100031.31;5078570;28;20227;-54
2022/01/20 09:25:27;;;;;;;67.57;28.77;;;;;;;2.70;78.74;100017.91;5074131;28;20226;-53
2022/01/20 09:27:56;;;;;;;70.00;30.13;;;;;;;2.79;77.37;100030.81;5092377;28;20208;-53
2022/01/20 09:30:24;;;;;;;55.93;28.50;;;;;;;3.03;81.98;100012.25;5092096;28;20197;-53
2022/01/20 09:33:02;;;;;;;58.87;28.33;;;;;;;3.04;78.40;100005.41;5092316;28;20188;-53
2022/01/20 09:35:33;;;;;;;59.60;30.03;;;;;;;3.13;73.86;100008.06;5092453;28;20290;-53
2022/01/20 09:38:01;;;;;;;54.33;28.30;;;;;;;3.10;73.37;99997.75;5092472;28;20204;-53
2022/01/20 09:40:30;;;;;;;55.43;28.07;;;;;;;2.99;73.82;99995.09;5092492;28;20212;-53
2022/01/20 09:42:57;;;;;;;55.00;27.53;;;;;;;3.11;73.22;99990.09;5079875;28;20221;-54
2022/01/20 09:45:24;;;;;;;62.77;31.17;;;;;;;3.32;74.36;99974.00;5070518;28;20219;-52
2022/01/20 09:47:51;;;;;;;60.00;30.57;;;;;;;3.32;73.84;99961.19;5070421;28;20218;-56
2022/01/20 09:50:21;;;;;;;61.43;31.77;;;;;;;3.49;73.26;99962.19;5071056;28;20223;-53
2022/01/20 09:52:51;;;;;;;71.33;32.57;;;;;;;3.60;71.82;99955.41;5071814;28;20225;-53
2022/01/20 09:55:18;;;;;;;66.73;34.47;;;;;;;3.46;71.61;99946.75;5071278;28;20680;-53
2022/01/20 09:57:45;;;;;;;71.87;35.67;;;;;;;3.50;71.58;99937.38;5071490;28;20224;-57
2022/01/20 10:00:15;;;;;;;71.83;35.20;;;;;;;3.69;71.66;99933.19;5077389;28;20323;-56
2022/01/20 10:02:54;;;;;;;71.40;36.77;;;;;;;3.70;71.68;99924.66;5089391;28;20816;-57
2022/01/20 10:05:30;;;;;;;82.73;38.27;;;;;;;3.77;71.09;99916.13;5091596;28;20612;-57
2022/01/20 10:08:11;;;;;;;72.87;37.50;;;;;;;3.80;70.84;99911.00;5090998;28;20197;-53
2022/01/20 10:10:40;;;;;;;71.10;37.00;;;;;;;3.87;70.88;99910.16;5091817;28;20204;-57
2022/01/20 10:13:09;;;;;;;79.03;38.43;;;;;;;3.98;70.78;99911.06;5091263;28;20224;-57
2022/01/20 10:15:36;;;;;;;87.37;38.17;;;;;;;4.01;69.75;99898.25;5091934;28;20583;-57
2022/01/20 10:18:08;;;;;;;69.17;35.93;;;;;;;3.94;69.83;99887.13;5091825;28;20194;-57
2022/01/20 10:20:35;;;;;;;75.40;37.20;;;;;;;3.90;69.87;99876.81;5091669;28;20199;-57
2022/01/20 10:23:02;;;;;;;75.40;35.23;;;;;;;4.08;68.87;99886.28;5091508;28;20223;-57
2022/01/20 10:25:36;;;;;;;77.47;33.23;;;;;;;4.18;68.00;99877.75;5091389;28;20679;-57
2022/01/20 10:28:03;;;;;;;73.13;33.37;;;;;;;4.22;67.74;99877.75;5091719;28;20198;-58
2022/01/20 10:30:33;;;;;;;68.53;35.13;;;;;;;4.28;68.36;99880.38;5091260;28;20197;-58
2022/01/20 10:33:01;;;;;;;68.53;35.67;;;;;;;4.51;68.27;99874.41;5091402;28;20191;-59
2022/01/20 10:35:33;;;;;;;84.80;38.30;;;;;;;4.61;67.85;99858.13;5091277;28;20209;-57
2022/01/20 10:38:10;;;;;;;75.97;35.50;;;;;;;4.59;67.25;99859.84;5091131;28;20272;-59
2022/01/20 10:40:48;;;;;;;65.57;35.60;;;;;;;4.55;67.04;99861.53;5091094;28;20195;-58
2022/01/20 10:43:23;;;;;;;73.30;36.30;;;;;;;4.53;67.55;99855.53;5091048;28;20601;-53
2022/01/20 10:45:49;;;;;;;68.03;36.47;;;;;;;4.62;67.31;99849.56;5091004;28;20198;-53
2022/01/20 10:48:20;;;;;;;73.67;38.60;;;;;;;4.62;67.44;99845.28;5091087;28;20680;-53
2022/01/20 10:50:47;;;;;;;82.87;41.90;;;;;;;4.71;67.23;99826.44;5090849;28;20210;-53
2022/01/20 10:53:19;;;;;;;84.67;42.07;;;;;;;4.69;68.45;99834.13;5090862;28;20274;-53
2022/01/20 10:55:48;;;;;;;90.40;43.07;;;;;;;4.74;67.84;99819.53;5090924;28;20750;-53
2022/01/20 10:58:17;;;;;;;86.67;44.27;;;;;;;4.81;67.69;99817.84;5090837;28;20192;-58
2022/01/20 11:00:47;;;;;;;87.60;40.73;;;;;;;4.95;67.01;99812.69;5090449;28;20616;-53
2022/01/20 11:03:15;;;;;;;76.30;40.03;;;;;;;4.91;67.93;99811.84;5090388;28;20239;-53
2022/01/20 11:05:44;;;;;;;80.00;41.90;;;;;;;4.91;69.30;99808.41;5090544;28;20191;-53
2022/01/20 11:08:12;;;;;;;83.30;40.87;;;;;;;5.15;67.13;99805.78;5090681;28;20196;-53
2022/01/20 11:10:41;;;;;;;73.20;40.37;;;;;;;5.13;67.89;99798.94;5090696;28;20209;-53
2022/01/20 11:13:11;;;;;;;66.47;34.80;;;;;;;5.32;66.72;99795.44;5090268;28;20609;-53
2022/01/20 11:15:40;;;;;;;69.33;34.47;;;;;;;5.16;67.58;99792.06;5090536;28;20618;-53
2022/01/20 11:18:08;;;;;;;63.43;31.33;;;;;;;5.23;67.95;99787.75;5090815;28;20334;-53
2022/01/20 11:20:42;;;;;;;56.63;30.10;;;;;;;5.23;68.33;99792.91;5090934;28;20576;-53
2022/01/20 11:23:09;;;;;;;53.40;27.23;;;;;;;5.20;68.28;99787.75;5090558;28;20227;-53
2022/01/20 11:25:39;;;;;;;49.07;26.50;;;;;;;5.41;66.61;99782.56;5090866;28;20201;-52
2022/01/20 11:28:10;;;;;;;47.60;26.33;;;;;;;5.41;67.29;99777.41;5090855;28;20200;-53
2022/01/20 11:30:39;;;;;;;38.93;23.87;;;;;;;5.33;66.77;99764.53;5090422;28;20202;-53
2022/01/20 11:33:08;;;;;;;48.10;24.20;;;;;;;5.31;67.13;99781.72;5090671;28;20191;-53
2022/01/20 11:35:40;;;;;;;40.97;23.77;;;;;;;5.32;66.45;99765.41;5090317;28;20525;-53
2022/01/20 11:38:09;;;;;;;55.83;26.70;;;;;;;5.36;66.77;99768.84;5090518;28;20191;-53
2022/01/20 11:40:47;;;;;;;67.83;32.13;;;;;;;5.36;67.17;99766.25;5090051;28;20195;-53
2022/01/20 11:43:15;;;;;;;50.13;27.87;;;;;;;5.39;66.59;99771.41;5090128;28;20226;-53
2022/01/20 11:45:46;;;;;;;49.57;27.03;;;;;;;5.46;66.06;99761.06;5089872;28;20242;-53
2022/01/20 11:48:15;;;;;;;49.83;26.03;;;;;;;5.38;66.16;99751.69;5090036;28;20299;-53
2022/01/20 11:50:44;;;;;;;52.13;27.47;;;;;;;5.39;66.31;99753.38;5090088;28;20201;-52
2022/01/20 11:53:12;;;;;;;46.77;24.83;;;;;;;5.50;65.65;99751.63;5090056;28;20202;-53
2022/01/20 11:55:47;;;;;;;54.23;26.23;;;;;;;5.50;65.50;99741.31;5090159;28;20192;-53
2022/01/20 11:58:19;;;;;;;46.37;25.50;;;;;;;5.48;65.36;99740.47;5090034;28;20191;-52
2022/01/20 12:00:58;;;;;;;54.03;25.17;;;;;;;5.59;65.08;99741.28;5089941;28;20199;-52
2022/01/20 12:03:24;;;;;;;46.93;22.60;;;;;;;5.67;65.43;99733.50;5089587;28;20219;-51
2022/01/20 12:05:59;;;;;;;37.40;22.07;;;;;;;5.71;64.21;99728.34;5090106;28;20199;-52
2022/01/20 12:08:26;;;;;;;37.17;22.23;;;;;;;5.74;64.76;99725.75;5089801;28;20203;-53
2022/01/20 12:11:01;;;;;;;39.30;21.83;;;;;;;5.83;64.30;99719.69;5090390;28;20197;-57
2022/01/20 12:13:30;;;;;;;34.90;21.53;;;;;;;5.84;64.54;99727.41;5093908;28;20222;-58